Time;durP1;ratioP1;P1;durP2;ratioP2;P2;SDS_P1;SDS_P2;PMS_P1;PMS_P2;Temp;Humidity;BMP_temperature;BMP_pressure;BME280_temperature;BME280_humidity;BME280_pressure;Samples;Min_cycle;Max_cycle;Signal;HPM_P1;HPM_P2
2023/12/25 00:00:14;;;;;;;;;6.00;4.00;;;;;12.78;72.46;100857.72;4996191;27;50618;-82
2023/12/25 00:02:39;;;;;;;;;6.67;3.00;;;;;12.83;72.45;100860.94;4995327;28;45249;-83
2023/12/25 00:05:05;;;;;;;;;4.00;4.00;;;;;12.87;72.80;100870.47;4994691;28;51180;-83
2023/12/25 00:07:30;;;;;;;;;3.00;2.67;;;;;12.81;72.29;100854.84;4996949;28;46285;-82
2023/12/25 00:09:56;;;;;;;;;4.33;4.00;;;;;12.82;72.56;100858.38;4999585;28;55291;-81
2023/12/25 00:12:23;;;;;;;;;4.67;3.33;;;;;12.72;72.73;100852.75;5000167;27;45414;-87
2023/12/25 00:14:48;;;;;;;;;5.00;4.67;;;;;12.69;72.71;100847.59;4996391;28;45455;-83
2023/12/25 00:17:15;;;;;;;;;8.67;5.00;;;;;12.69;72.48;100839.59;4994701;28;45368;-82
2023/12/25 00:19:41;;;;;;;;;6.00;3.00;;;;;12.80;72.70;100861.16;4996337;27;45511;-85
2023/12/25 00:22:08;;;;;;;;;5.33;3.00;;;;;12.84;72.75;100862.66;4995370;28;45422;-84
2023/12/25 00:24:33;;;;;;;;;3.00;3.00;;;;;12.78;72.92;100855.06;4995030;28;45404;-82
2023/12/25 00:26:58;;;;;;;;;3.00;2.00;;;;;12.85;72.60;100859.03;4994708;28;45394;-82
2023/12/25 00:29:24;;;;;;;;;4.00;4.00;;;;;12.87;72.95;100861.63;4994476;28;59857;-82
2023/12/25 00:31:49;;;;;;;;;4.67;3.67;;;;;12.83;72.95;100850.28;4993162;28;52135;-81
2023/12/25 00:34:15;;;;;;;;;3.00;3.00;;;;;12.83;72.93;100862.78;4994169;28;50619;-85
2023/12/25 00:36:40;;;;;;;;;3.67;3.33;;;;;12.87;72.93;100865.16;4994199;28;45973;-83
2023/12/25 00:39:05;;;;;;;;;4.00;2.33;;;;;12.82;72.86;100851.22;4994192;28;45377;-83
2023/12/25 00:41:31;;;;;;;;;2.00;2.00;;;;;12.86;72.26;100863.44;4994396;27;45310;-83
2023/12/25 00:43:59;;;;;;;;;3.00;3.00;;;;;12.87;72.94;100858.94;4994672;27;45298;-83
2023/12/25 00:46:25;;;;;;;;;6.67;3.00;;;;;12.86;72.41;100844.75;4992578;28;48570;-83
2023/12/25 00:48:51;;;;;;;;;3.33;3.00;;;;;12.89;72.85;100860.59;4994102;28;45469;-85
2023/12/25 00:51:16;;;;;;;;;7.00;3.00;;;;;12.90;72.70;100854.31;4994187;27;45520;-82
2023/12/25 00:53:41;;;;;;;;;7.00;4.00;;;;;12.89;72.41;100857.94;4994172;28;45575;-83
2023/12/25 00:56:08;;;;;;;;;4.33;3.33;;;;;12.81;72.76;100846.00;4992345;28;60638;-82
2023/12/25 00:58:34;;;;;;;;;4.67;3.00;;;;;12.85;72.88;100848.38;4993887;28;45555;-81
2023/12/25 01:00:59;;;;;;;;;8.00;3.00;;;;;12.90;72.86;100862.31;4993958;28;45297;-86
2023/12/25 01:03:24;;;;;;;;;4.00;3.33;;;;;12.89;72.83;100860.59;4994342;28;45378;-82
2023/12/25 01:05:50;;;;;;;;;6.33;3.33;;;;;12.83;72.47;100858.28;4993375;28;54244;-83
2023/12/25 01:08:15;;;;;;;;;3.67;3.33;;;;;12.85;72.86;100856.38;4993617;28;45276;-82
2023/12/25 01:10:40;;;;;;;;;3.00;3.00;;;;;12.90;72.83;100873.00;5008810;27;47370;-81
2023/12/25 01:13:06;;;;;;;;;5.00;3.00;;;;;12.88;73.22;100885.53;4993523;28;45967;-82
2023/12/25 01:15:31;;;;;;;;;3.67;2.67;;;;;12.78;72.73;100864.88;5009324;28;48921;-84
2023/12/25 01:17:56;;;;;;;;;5.67;3.00;;;;;12.78;72.87;100849.72;4993579;28;56890;-81
2023/12/25 01:20:21;;;;;;;;;2.33;2.33;;;;;12.87;72.98;100874.97;4994066;28;45810;-82
2023/12/25 01:22:47;;;;;;;;;3.67;3.67;;;;;12.88;72.97;100874.88;4993965;28;45950;-84
2023/12/25 01:25:12;;;;;;;;;8.33;5.00;;;;;12.85;72.89;100875.06;4993804;28;45562;-82
2023/12/25 01:27:41;;;;;;;;;6.00;4.00;;;;;12.78;73.33;100856.88;4994252;28;45214;-83
2023/12/25 01:30:08;;;;;;;;;2.67;2.67;;;;;12.75;73.60;100852.53;4995553;28;45317;-81
2023/12/25 01:32:33;;;;;;;;;4.00;2.67;;;;;12.85;73.56;100852.84;4993811;27;45316;-82
2023/12/25 01:34:58;;;;;;;;;2.67;2.00;;;;;12.85;73.08;100860.84;4993690;28;46387;-82
2023/12/25 01:37:24;;;;;;;;;6.00;3.67;;;;;12.81;73.41;100846.00;4992911;28;45313;-82
2023/12/25 01:39:49;;;;;;;;;6.00;3.00;;;;;12.81;73.68;100841.50;4993807;28;55969;-82
2023/12/25 01:42:14;;;;;;;;;6.33;4.00;;;;;12.82;73.63;100843.22;4993772;28;53307;-83
2023/12/25 01:44:39;;;;;;;;;6.00;3.00;;;;;12.81;73.20;100836.19;4992907;28;58974;-84
2023/12/25 01:47:05;;;;;;;;;3.33;3.00;;;;;12.85;73.74;100831.50;4992837;28;61043;-82
2023/12/25 01:49:31;;;;;;;;;3.33;2.00;;;;;12.83;73.33;100833.41;4993496;27;45530;-82
2023/12/25 01:51:56;;;;;;;;;3.33;3.00;;;;;12.82;73.47;100829.88;4994191;28;45227;-82
2023/12/25 01:54:22;;;;;;;;;4.33;3.00;;;;;12.75;73.40;100815.19;4993180;28;46066;-83
2023/12/25 01:56:48;;;;;;;;;7.33;3.00;;;;;12.73;74.13;100819.75;4993490;28;45266;-83
2023/12/25 01:59:13;;;;;;;;;6.33;3.00;;;;;12.78;74.25;100836.38;4995120;28;45192;-82
2023/12/25 02:01:38;;;;;;;;;6.00;3.00;;;;;12.79;73.96;100838.09;4997853;28;45471;-81
2023/12/25 02:04:04;;;;;;;;;6.00;3.00;;;;;12.77;74.33;100829.31;4998041;28;46300;-83
2023/12/25 02:06:29;;;;;;;;;9.67;4.00;;;;;12.80;74.45;100837.13;4996482;28;45388;-81
2023/12/25 02:08:55;;;;;;;;;5.00;4.00;;;;;12.75;74.60;100828.53;4996295;28;45441;-84
2023/12/25 02:11:20;;;;;;;;;6.67;3.33;;;;;12.75;74.76;100841.00;4996374;27;45578;-83
2023/12/25 02:13:46;;;;;;;;;1.67;1.67;;;;;12.74;74.56;100836.63;4995625;27;46040;-82
2023/12/25 02:16:12;;;;;;;;;4.33;2.00;;;;;12.74;74.67;100842.81;4995962;27;45309;-83
2023/12/25 02:18:38;;;;;;;;;4.00;1.33;;;;;12.71;74.26;100845.69;4996232;28;45401;-83
2023/12/25 02:21:03;;;;;;;;;3.00;2.33;;;;;12.77;74.29;100845.34;4995199;28;45640;-86
2023/12/25 02:23:31;;;;;;;;;5.33;3.67;;;;;12.75;74.47;100847.22;4998947;28;46609;-83
2023/12/25 02:25:58;;;;;;;;;3.67;2.00;;;;;12.76;74.46;100853.41;5000879;28;45330;-83
2023/12/25 02:28:24;;;;;;;;;2.00;2.00;;;;;12.79;74.05;100851.44;4998834;28;45235;-83
2023/12/25 02:30:51;;;;;;;;;4.00;2.00;;;;;12.84;74.34;100852.00;4996558;28;45234;-83
2023/12/25 02:33:16;;;;;;;;;2.00;2.00;;;;;12.83;74.21;100847.59;5011328;27;46653;-83
2023/12/25 02:35:41;;;;;;;;;2.00;2.00;;;;;12.77;74.27;100840.00;4995596;28;45371;-83
2023/12/25 02:38:07;;;;;;;;;4.33;2.00;;;;;12.80;74.61;100849.63;4995380;28;60079;-85
2023/12/25 02:40:32;;;;;;;;;1.00;1.00;;;;;12.81;74.73;100846.84;4997607;28;45481;-82
2023/12/25 02:42:57;;;;;;;;;4.67;2.00;;;;;12.78;74.47;100846.19;5000227;28;45572;-84
2023/12/25 02:45:23;;;;;;;;;4.00;3.00;;;;;12.75;74.46;100841.88;4997826;28;45312;-87
2023/12/25 02:47:48;;;;;;;;;6.00;3.00;;;;;12.71;75.17;100840.34;4996148;28;45514;-82
2023/12/25 02:50:13;;;;;;;;;3.00;2.00;;;;;12.74;74.47;100849.97;4996105;28;45321;-84
2023/12/25 02:52:39;;;;;;;;;4.00;2.00;;;;;12.70;74.67;100839.50;4995602;28;46004;-84
2023/12/25 02:55:05;;;;;;;;;2.67;2.33;;;;;12.78;74.85;100855.06;4995518;28;45513;-84
2023/12/25 02:57:30;;;;;;;;;3.33;2.33;;;;;12.72;74.67;100836.72;4996066;28;45382;-84
2023/12/25 02:59:55;;;;;;;;;1.00;1.00;;;;;12.79;74.28;100846.09;4995059;28;55559;-86
2023/12/25 03:02:20;;;;;;;;;5.00;2.00;;;;;12.86;74.48;100858.09;4995238;27;45954;-83
2023/12/25 03:04:46;;;;;;;;;3.00;3.00;;;;;12.84;75.06;100862.66;4994176;28;67903;-82
2023/12/25 03:07:11;;;;;;;;;4.00;3.00;;;;;12.70;74.84;100835.97;4995274;28;45357;-82
2023/12/25 03:09:36;;;;;;;;;4.67;2.00;;;;;12.83;74.78;100847.59;4995389;28;45506;-84
2023/12/25 03:12:02;;;;;;;;;3.00;3.00;;;;;12.82;75.26;100856.56;4995306;28;66161;-81
2023/12/25 03:14:27;;;;;;;;;5.00;3.67;;;;;12.84;74.89;100849.31;4995153;27;45273;-81
2023/12/25 03:16:52;;;;;;;;;4.00;2.67;;;;;12.85;74.72;100853.72;4994990;28;54780;-83
2023/12/25 03:19:18;;;;;;;;;2.00;1.00;;;;;12.78;75.32;100828.38;4995695;28;45169;-82
2023/12/25 03:21:43;;;;;;;;;3.00;3.00;;;;;12.79;75.17;100830.06;4996001;28;45396;-84
2023/12/25 03:24:09;;;;;;;;;3.00;2.00;;;;;12.83;75.26;100844.94;4994823;28;62939;-84
2023/12/25 03:26:34;;;;;;;;;2.67;2.67;;;;;12.82;75.44;100851.22;4995602;28;45274;-83
2023/12/25 03:29:00;;;;;;;;;6.00;2.00;;;;;12.75;75.53;100836.53;4995882;27;45322;-85
2023/12/25 03:31:25;;;;;;;;;3.00;2.67;;;;;12.71;75.46;100827.00;4995432;28;46101;-85
2023/12/25 03:33:50;;;;;;;;;6.33;2.00;;;;;12.73;75.57;100833.09;4994801;28;57699;-86
2023/12/25 03:36:15;;;;;;;;;2.00;2.00;;;;;12.77;75.65;100840.00;4995592;28;45362;-83
2023/12/25 03:38:41;;;;;;;;;2.00;1.00;;;;;12.81;75.52;100841.50;5000968;28;45459;-82
2023/12/25 03:41:08;;;;;;;;;4.00;3.00;;;;;12.75;75.76;100844.53;5017377;28;46459;-83
2023/12/25 03:43:33;;;;;;;;;4.33;2.00;;;;;12.79;75.93;100838.09;4995740;28;45443;-84
2023/12/25 03:45:58;;;;;;;;;3.67;2.00;;;;;12.73;76.12;100841.13;4994211;28;59511;-84
2023/12/25 03:48:24;;;;;;;;;2.33;2.33;;;;;12.76;76.32;100840.94;4994634;28;55948;-83
2023/12/25 03:50:49;;;;;;;;;2.67;1.00;;;;;12.75;76.41;100831.19;4994418;28;59885;-86
2023/12/25 03:53:14;;;;;;;;;1.00;1.00;;;;;12.74;76.86;100834.81;4994382;28;61223;-82
2023/12/25 03:55:40;;;;;;;;;3.33;1.33;;;;;12.74;77.17;100833.97;4994709;27;49990;-84
2023/12/25 03:58:05;;;;;;;;;4.33;2.00;;;;;12.75;76.86;100839.19;4995497;28;45527;-83
2023/12/25 04:00:30;;;;;;;;;2.33;2.33;;;;;12.74;77.39;100834.81;4994580;28;45559;-82
2023/12/25 04:02:56;;;;;;;;;1.00;1.00;;;;;12.74;77.06;100837.50;4994825;28;45218;-83
2023/12/25 04:05:23;;;;;;;;;2.00;2.00;;;;;12.70;77.35;100839.50;4995218;27;45821;-84
2023/12/25 04:07:49;;;;;;;;;5.33;2.67;;;;;12.63;77.03;100822.16;4995334;28;45296;-83
2023/12/25 04:10:15;;;;;;;;;2.33;1.00;;;;;12.76;77.47;100837.38;4995205;28;46033;-83
2023/12/25 04:12:41;;;;;;;;;1.00;1.00;;;;;12.77;77.16;100823.97;4994985;28;45424;-84
2023/12/25 04:15:06;;;;;;;;;1.00;1.00;;;;;12.76;77.32;100816.94;4995031;27;45412;-83
2023/12/25 04:17:32;;;;;;;;;2.67;2.00;;;;;12.73;77.57;100827.75;4995136;28;45343;-83
2023/12/25 04:19:57;;;;;;;;;3.00;1.00;;;;;12.62;77.57;100790.22;4994332;28;50346;-82
2023/12/25 04:22:22;;;;;;;;;5.00;1.00;;;;;12.71;77.30;100813.66;4992934;28;61965;-84
2023/12/25 04:24:48;;;;;;;;;1.00;1.00;;;;;12.72;77.25;100815.38;4994977;28;45394;-86
2023/12/25 04:27:13;;;;;;;;;2.00;1.00;;;;;12.73;77.67;100817.09;4995123;28;45439;-84
2023/12/25 04:29:38;;;;;;;;;1.00;1.00;;;;;12.63;77.44;100807.94;4994617;28;46288;-82
2023/12/25 04:32:04;;;;;;;;;1.00;1.00;;;;;12.70;77.31;100806.63;4996014;28;45343;-85
2023/12/25 04:34:29;;;;;;;;;1.00;1.00;;;;;12.66;77.50;100799.75;4995570;28;45350;-85
2023/12/25 04:36:55;;;;;;;;;5.33;0.33;;;;;12.73;77.50;100814.44;4996181;28;45331;-86
2023/12/25 04:39:20;;;;;;;;;1.00;1.00;;;;;12.70;77.43;100812.81;4996618;28;57674;-86
2023/12/25 04:41:45;;;;;;;;;0.67;0.67;;;;;12.72;77.62;100809.19;4993218;28;64969;-85
2023/12/25 04:44:10;;;;;;;;;2.67;1.00;;;;;12.73;77.40;100810.91;4994478;28;51888;-81
2023/12/25 04:46:36;;;;;;;;;4.00;0.33;;;;;12.74;77.43;100809.94;4994224;28;45591;-82
2023/12/25 04:49:02;;;;;;;;;0.33;0.33;;;;;12.69;77.82;100811.09;4995112;28;45250;-83
2023/12/25 04:51:27;;;;;;;;;0.33;0.00;;;;;12.66;77.66;100805.09;4994725;28;45191;-83
2023/12/25 04:53:52;;;;;;;;;3.00;1.00;;;;;12.68;77.48;100811.19;4994531;28;45490;-81
2023/12/25 04:56:18;;;;;;;;;1.00;1.00;;;;;12.72;77.19;100819.88;4994679;27;45485;-83
2023/12/25 04:58:44;;;;;;;;;2.67;2.00;;;;;12.78;77.24;100824.84;4994926;28;45450;-85
2023/12/25 05:01:09;;;;;;;;;1.00;1.00;;;;;12.79;77.53;100834.56;4995322;28;45353;-82
2023/12/25 05:03:34;;;;;;;;;1.00;1.00;;;;;12.75;77.48;100825.84;4995626;28;45500;-83
2023/12/25 05:06:00;;;;;;;;;2.00;1.00;;;;;12.72;77.73;100828.72;4995694;28;45685;-82
2023/12/25 05:08:25;;;;;;;;;2.00;0.00;;;;;12.76;77.91;100824.03;4994824;28;46108;-83
2023/12/25 05:10:51;;;;;;;;;1.00;1.00;;;;;12.75;77.46;100823.19;4995357;28;45181;-87
2023/12/25 05:13:16;;;;;;;;;2.00;1.00;;;;;12.72;77.94;100820.72;4994879;28;45363;-83
2023/12/25 05:15:43;;;;;;;;;0.00;0.00;;;;;12.75;78.16;100825.84;4995111;28;45428;-82
2023/12/25 05:18:08;;;;;;;;;1.67;1.00;;;;;12.76;77.54;100816.94;4997764;28;45361;-82
2023/12/25 05:20:34;;;;;;;;;2.00;0.00;;;;;12.74;77.99;100813.47;5000390;28;45314;-81
2023/12/25 05:23:01;;;;;;;;;2.00;0.00;;;;;12.75;77.98;100804.50;5000923;28;45340;-79
2023/12/25 05:25:26;;;;;;;;;2.00;1.00;;;;;12.65;77.91;100798.03;5000107;28;45551;-84
2023/12/25 05:27:51;;;;;;;;;0.67;0.67;;;;;12.78;77.51;100820.34;4994602;28;50568;-82
2023/12/25 05:30:17;;;;;;;;;0.00;0.00;;;;;12.80;77.65;100821.13;4994472;27;45247;-83
2023/12/25 05:32:42;;;;;;;;;0.00;0.00;;;;;12.72;77.56;100804.72;4994730;28;45499;-81
2023/12/25 05:35:07;;;;;;;;;0.00;0.00;;;;;12.72;78.36;100817.19;4997479;28;45214;-85
2023/12/25 05:37:33;;;;;;;;;0.67;0.67;;;;;12.73;77.89;100813.56;4996714;28;45403;-86
2023/12/25 05:39:59;;;;;;;;;3.00;0.00;;;;;12.73;77.96;100817.09;4996096;28;62053;-87
2023/12/25 05:42:24;;;;;;;;;0.00;0.00;;;;;12.74;78.03;100818.81;4996421;28;45268;-89
2023/12/25 05:44:49;;;;;;;;;0.67;0.67;;;;;12.71;77.68;100797.66;4997415;28;45231;-88
2023/12/25 05:47:15;;;;;;;;;1.00;0.00;;;;;12.69;77.99;100810.25;4996006;28;50169;-88
2023/12/25 05:49:40;;;;;;;;;0.00;0.00;;;;;12.56;78.37;100780.78;4996708;27;45234;-84
2023/12/25 05:52:06;;;;;;;;;0.00;0.00;;;;;12.69;78.14;100808.44;4996789;27;45298;-83
2023/12/25 05:54:31;;;;;;;;;0.00;0.00;;;;;12.69;78.26;100810.25;4996555;28;45416;-83
2023/12/25 05:56:57;;;;;;;;;1.00;1.00;;;;;12.72;77.72;100820.72;4996300;28;45483;-86
2023/12/25 05:59:23;;;;;;;;;2.00;0.00;;;;;12.72;78.18;100810.03;4996589;28;45441;-83
2023/12/25 06:01:48;;;;;;;;;1.00;0.00;;;;;12.72;78.02;100814.53;4996868;28;45443;-84
2023/12/25 06:04:14;;;;;;;;;0.00;0.00;;;;;12.68;78.09;100814.72;4996838;27;45867;-82
2023/12/25 06:06:39;;;;;;;;;1.33;0.33;;;;;12.72;78.30;100822.53;4996775;27;45346;-83
2023/12/25 06:09:06;;;;;;;;;2.00;1.00;;;;;12.71;78.07;100813.66;4997980;27;45429;-80
2023/12/25 06:11:31;;;;;;;;;0.00;0.00;;;;;12.72;77.89;100819.88;4996517;28;45273;-83
2023/12/25 06:13:56;;;;;;;;;0.00;0.00;;;;;12.75;77.70;100825.00;4996675;28;45374;-82
2023/12/25 06:16:22;;;;;;;;;0.00;0.00;;;;;12.78;78.14;100831.03;4994894;28;48259;-84
2023/12/25 06:18:47;;;;;;;;;1.00;0.00;;;;;12.77;78.05;100829.31;4996436;27;45222;-84
2023/12/25 06:21:15;;;;;;;;;0.00;0.00;;;;;12.77;78.05;100815.97;4997188;28;45405;-83
2023/12/25 06:23:43;;;;;;;;;0.00;0.00;;;;;12.76;77.60;100824.94;4997809;27;45381;-84
2023/12/25 06:26:08;;;;;;;;;2.00;0.00;;;;;12.63;77.90;100807.94;4996807;28;46301;-84
2023/12/25 06:28:34;;;;;;;;;0.00;0.00;;;;;12.78;77.85;100816.84;4997277;27;45336;-85
2023/12/25 06:30:59;;;;;;;;;0.00;0.00;;;;;12.74;77.87;100810.81;4997540;28;45365;-83
2023/12/25 06:33:24;;;;;;;;;1.33;0.00;;;;;12.75;77.54;100823.19;4997132;28;45469;-83
2023/12/25 06:35:50;;;;;;;;;1.00;0.00;;;;;12.67;77.83;100809.47;4996836;28;46095;-84
2023/12/25 06:38:15;;;;;;;;;0.00;0.00;;;;;12.68;77.99;100821.88;4995779;28;46998;-84
2023/12/25 06:40:40;;;;;;;;;0.00;0.00;;;;;12.71;78.13;100824.34;4997122;27;45307;-85
2023/12/25 06:43:07;;;;;;;;;0.00;0.00;;;;;12.45;77.85;100785.06;4999004;27;45972;-85
2023/12/25 06:45:32;;;;;;;;;0.00;0.00;;;;;12.75;77.91;100827.66;4995513;27;46234;-84
2023/12/25 06:47:58;;;;;;;;;0.00;0.00;;;;;12.66;77.82;100818.44;4997810;28;51817;-88
2023/12/25 06:50:23;;;;;;;;;0.00;0.00;;;;;12.74;77.41;100826.81;4998644;28;45351;-87
2023/12/25 06:52:48;;;;;;;;;2.00;0.00;;;;;12.69;77.71;100810.25;4997055;28;51222;-83
2023/12/25 06:55:14;;;;;;;;;0.00;0.00;;;;;12.76;77.75;100838.28;4996090;28;46124;-84
2023/12/25 06:57:39;;;;;;;;;0.00;0.00;;;;;12.75;77.93;100841.88;4995972;28;45239;-83
2023/12/25 07:00:05;;;;;;;;;0.00;0.00;;;;;12.78;77.61;100852.38;4995665;27;45230;-83
2023/12/25 07:02:31;;;;;;;;;1.00;0.00;;;;;12.79;77.58;100837.22;4995832;28;45482;-83
2023/12/25 07:04:56;;;;;;;;;0.67;0.67;;;;;12.76;77.61;100824.94;4995348;27;45432;-84
2023/12/25 07:07:21;;;;;;;;;0.67;0.00;;;;;12.77;77.68;100829.31;4994959;28;59998;-82
2023/12/25 07:09:47;;;;;;;;;0.00;0.00;;;;;12.75;77.99;100836.53;4994897;28;66696;-83
2023/12/25 07:12:12;;;;;;;;;0.00;0.00;;;;;12.74;78.29;100842.81;4995925;28;45460;-83
2023/12/25 07:14:45;;;;;;;;;1.00;0.00;;;;;12.74;77.96;100834.81;4995073;28;50102;-83
2023/12/25 07:17:10;;;;;;;;;0.00;0.00;;;;;12.73;78.00;100843.78;4995545;28;45354;-84
2023/12/25 07:19:36;;;;;;;;;0.00;0.00;;;;;12.73;78.12;100846.44;4995374;27;45329;-86
2023/12/25 07:22:01;;;;;;;;;2.00;0.00;;;;;12.73;77.96;100843.78;4995542;28;45430;-84
2023/12/25 07:24:27;;;;;;;;;0.33;0.00;;;;;12.76;77.68;100850.72;4993927;28;47299;-85
2023/12/25 07:26:52;;;;;;;;;0.00;0.00;;;;;12.66;77.65;100842.44;4995110;28;45320;-82
2023/12/25 07:29:18;;;;;;;;;0.00;0.00;;;;;12.78;77.51;100857.72;4995593;28;45427;-85
2023/12/25 07:31:43;;;;;;;;;0.00;0.00;;;;;12.78;77.34;100863.06;4995381;27;45373;-82
2023/12/25 07:34:08;;;;;;;;;0.00;0.00;;;;;12.81;77.60;100872.69;4995314;27;45496;-82
2023/12/25 07:36:34;;;;;;;;;0.00;0.00;;;;;12.81;77.72;100862.88;4996028;27;45421;-81
2023/12/25 07:38:59;;;;;;;;;0.00;0.00;;;;;12.73;77.81;100854.47;4996691;28;45354;-83
2023/12/25 07:41:24;;;;;;;;;0.00;0.00;;;;;12.81;77.66;100870.88;4997009;27;50264;-80
2023/12/25 07:43:50;;;;;;;;;0.00;0.00;;;;;12.81;77.42;100878.03;4996478;28;45423;-81
2023/12/25 07:46:15;;;;;;;;;0.00;0.00;;;;;12.78;77.58;100876.41;4995723;28;45324;-87
2023/12/25 07:48:41;;;;;;;;;0.00;0.00;;;;;12.76;77.70;100870.31;4998324;28;45422;-85
2023/12/25 07:51:06;;;;;;;;;1.00;1.00;;;;;12.76;78.16;100878.31;4995793;27;45646;-82
2023/12/25 07:53:31;;;;;;;;;0.00;0.00;;;;;12.77;77.82;100877.34;4994216;28;68567;-87
2023/12/25 07:55:57;;;;;;;;;0.67;0.33;;;;;12.74;77.66;100872.19;4994170;28;45175;-87
2023/12/25 07:58:22;;;;;;;;;0.00;0.00;;;;;12.61;77.87;100864.06;4996506;28;45334;-81
2023/12/25 08:00:48;;;;;;;;;0.00;0.00;;;;;12.66;77.79;100869.13;4997537;28;45531;-85
2023/12/25 08:03:14;;;;;;;;;2.00;0.00;;;;;12.76;77.92;100882.75;4995959;28;45281;-84
2023/12/25 08:05:39;;;;;;;;;0.00;0.00;;;;;12.64;77.29;100852.38;4994933;28;45433;-82
2023/12/25 08:08:07;;;;;;;;;0.00;0.00;;;;;12.79;77.63;100875.44;4995206;28;61028;-82
2023/12/25 08:10:33;;;;;;;;;0.00;0.00;;;;;12.74;77.52;100860.66;4997675;28;45396;-82
2023/12/25 08:13:02;;;;;;;;;0.00;0.00;;;;;12.81;77.70;100868.19;4999236;28;45767;-82
2023/12/25 08:15:30;;;;;;;;;0.00;0.00;;;;;12.76;77.48;100859.63;4997966;28;45222;-84
2023/12/25 08:17:55;;;;;;;;;0.00;0.00;;;;;12.75;77.92;100873.91;4996312;28;45234;-85
2023/12/25 08:20:21;;;;;;;;;0.00;0.00;;;;;12.76;77.70;100878.31;4995803;28;45457;-83
2023/12/25 08:22:46;;;;;;;;;0.00;0.00;;;;;12.71;77.77;100869.72;4994091;28;58801;-81
2023/12/25 08:25:12;;;;;;;;;0.00;0.00;;;;;12.74;78.00;100874.84;4994539;28;45434;-81
2023/12/25 08:27:37;;;;;;;;;0.00;0.00;;;;;12.71;78.09;100864.38;4995285;28;46410;-83
2023/12/25 08:30:04;;;;;;;;;0.00;0.00;;;;;12.82;77.58;100887.75;4994714;28;45619;-84
2023/12/25 08:32:29;;;;;;;;;2.00;0.00;;;;;12.85;77.24;100890.22;4994251;28;45480;-81
2023/12/25 08:34:54;;;;;;;;;0.00;0.00;;;;;12.85;77.14;100885.75;5009383;28;45388;-83
2023/12/25 08:37:20;;;;;;;;;0.00;0.00;;;;;12.87;77.32;100888.31;4995321;27;45370;-83
2023/12/25 08:39:45;;;;;;;;;1.00;0.00;;;;;12.84;77.22;100888.50;4994983;28;45502;-84
2023/12/25 08:42:10;;;;;;;;;0.00;0.00;;;;;12.84;77.28;100889.34;4994903;28;45904;-83
2023/12/25 08:44:36;;;;;;;;;1.00;0.00;;;;;12.75;76.75;100873.03;4995077;28;45275;-85
2023/12/25 08:47:03;;;;;;;;;0.00;0.00;;;;;12.84;76.94;100894.69;4994791;28;45424;-83
2023/12/25 08:49:28;;;;;;;;;0.00;0.00;;;;;12.87;76.80;100894.50;4994316;28;45539;-82
2023/12/25 08:51:53;;;;;;;;;0.00;0.00;;;;;12.88;76.66;100896.22;5009106;27;46597;-83
2023/12/25 08:54:19;;;;;;;;;1.00;0.00;;;;;12.90;76.84;100902.34;4994327;28;45233;-83
2023/12/25 08:56:44;;;;;;;;;0.00;0.00;;;;;12.84;76.54;100904.53;4994385;28;45243;-82
2023/12/25 08:59:09;;;;;;;;;0.00;0.00;;;;;12.87;76.80;100913.19;4994481;28;45438;-84
2023/12/25 09:01:35;;;;;;;;;0.67;0.00;;;;;12.75;76.40;100900.59;4992889;28;47891;-83
2023/12/25 09:04:01;;;;;;;;;0.00;0.00;;;;;12.80;76.54;100897.66;4994122;28;45451;-82
2023/12/25 09:06:26;;;;;;;;;0.00;0.00;;;;;12.80;75.90;100898.50;4997119;27;45311;-85
2023/12/25 09:08:52;;;;;;;;;0.00;0.00;;;;;12.88;76.40;100911.38;5002948;27;45594;-81
2023/12/25 09:11:17;;;;;;;;;0.00;0.00;;;;;12.86;75.95;100906.13;5002960;27;46261;-84
2023/12/25 09:13:43;;;;;;;;;0.00;0.00;;;;;12.90;75.87;100910.34;5015441;27;45453;-85
2023/12/25 09:16:09;;;;;;;;;1.33;0.00;;;;;12.92;75.69;100918.28;4998019;28;45374;-84
2023/12/25 09:18:35;;;;;;;;;0.00;0.00;;;;;12.94;75.52;100921.69;4996060;28;45491;-87
2023/12/25 09:21:00;;;;;;;;;0.00;0.00;;;;;12.69;74.73;100887.63;4995343;28;45539;-84
2023/12/25 09:23:26;;;;;;;;;0.00;0.00;;;;;12.87;75.12;100920.34;4995135;28;45919;-82
2023/12/25 09:25:51;;;;;;;;;0.00;0.00;;;;;12.92;75.10;100929.81;4994184;28;45415;-84
2023/12/25 09:28:17;;;;;;;;;0.00;0.00;;;;;12.87;75.37;100917.66;5004814;28;45239;-87
2023/12/25 09:30:42;;;;;;;;;0.00;0.00;;;;;12.94;74.61;100929.72;5010182;28;45150;-83
2023/12/25 09:33:08;;;;;;;;;0.00;0.00;;;;;12.97;74.79;100937.53;4998101;27;45393;-83
2023/12/25 09:35:33;;;;;;;;;0.67;0.00;;;;;12.90;74.58;100920.19;4993755;28;45558;-83
2023/12/25 09:37:58;;;;;;;;;1.33;0.00;;;;;13.07;74.46;100949.38;4994190;28;54664;-85
2023/12/25 09:40:24;;;;;;;;;0.00;0.00;;;;;13.09;74.91;100941.28;4993726;28;51191;-83
2023/12/25 09:42:50;;;;;;;;;0.00;0.00;;;;;13.04;74.76;100946.91;4993420;28;45344;-82
2023/12/25 09:45:17;;;;;;;;;0.33;0.00;;;;;13.09;74.82;100949.28;4976374;28;45321;-82
2023/12/25 09:47:43;;;;;;;;;0.00;0.00;;;;;13.09;74.68;100946.59;4995040;28;45486;-82
2023/12/25 09:50:10;;;;;;;;;0.00;0.00;;;;;13.04;75.08;100949.56;4995615;28;45423;-82
2023/12/25 09:52:35;;;;;;;;;0.00;0.00;;;;;13.04;75.28;100932.69;4993493;28;45428;-84
2023/12/25 09:55:00;;;;;;;;;0.33;0.00;;;;;12.97;74.94;100929.53;4994056;28;45278;-84
2023/12/25 09:57:27;;;;;;;;;0.00;0.00;;;;;13.03;75.57;100947.84;4994368;28;45396;-83
2023/12/25 09:59:52;;;;;;;;;0.00;0.00;;;;;12.98;75.34;100950.78;4992251;28;47684;-81
2023/12/25 10:02:21;;;;;;;;;0.00;0.00;;;;;12.95;76.03;100945.63;4993089;28;45335;-84
2023/12/25 10:04:49;;;;;;;;;1.00;0.00;;;;;12.96;75.78;100942.00;4992867;28;45337;-83
2023/12/25 10:07:15;;;;;;;;;0.00;0.00;;;;;13.05;75.95;100951.28;4992867;28;45363;-82
2023/12/25 10:09:40;;;;;;;;;0.00;0.00;;;;;13.04;76.81;100949.56;5007790;27;47263;-82
2023/12/25 10:12:06;;;;;;;;;2.00;0.00;;;;;13.03;76.41;100952.34;4993471;28;45354;-85
2023/12/25 10:14:32;;;;;;;;;0.00;0.00;;;;;13.02;77.29;100940.81;4994045;27;45289;-82
2023/12/25 10:16:58;;;;;;;;;0.00;0.00;;;;;12.96;77.04;100931.34;4993477;27;45586;-86
2023/12/25 10:19:24;;;;;;;;;1.00;0.00;;;;;13.08;77.16;100958.25;4994351;28;45999;-83
2023/12/25 10:21:52;;;;;;;;;0.00;0.00;;;;;13.10;77.46;100949.19;4996448;28;45443;-86
2023/12/25 10:24:17;;;;;;;;;0.00;0.00;;;;;13.07;78.33;100943.19;4997780;27;45443;-84
2023/12/25 10:26:46;;;;;;;;;0.00;0.00;;;;;13.14;78.10;100941.84;4998953;28;45369;-84
2023/12/25 10:29:12;;;;;;;;;0.00;0.00;;;;;13.14;78.21;100947.19;4998993;27;45393;-86
2023/12/25 10:31:38;;;;;;;;;1.00;1.00;;;;;13.02;77.94;100924.78;5003844;27;45296;-83
2023/12/25 10:34:04;;;;;;;;;0.00;0.00;;;;;13.13;78.10;100945.47;5001737;28;45429;-85
2023/12/25 10:36:30;;;;;;;;;0.00;0.00;;;;;13.21;78.02;100945.91;5001127;27;45646;-82
2023/12/25 10:38:56;;;;;;;;;0.00;0.00;;;;;13.19;78.03;100945.13;5002246;27;45235;-87
2023/12/25 10:41:27;;;;;;;;;0.00;0.00;;;;;13.24;78.48;100935.00;4997906;28;45497;-84
2023/12/25 10:43:56;;;;;;;;;2.00;0.67;;;;;13.26;78.00;100938.44;5002083;28;45326;-82
2023/12/25 10:46:26;;;;;;;;;0.00;0.00;;;;;13.14;78.66;100929.34;4998378;28;45512;-84
2023/12/25 10:48:53;;;;;;;;;0.00;0.00;;;;;13.21;78.35;100936.06;4996223;27;46154;-82
2023/12/25 10:51:25;;;;;;;;;1.00;1.00;;;;;13.13;78.61;100919.63;4995674;28;45214;-84
2023/12/25 10:53:51;;;;;;;;;2.00;0.00;;;;;13.07;79.60;100924.50;4994549;28;45324;-84
2023/12/25 10:56:21;;;;;;;;;2.00;1.00;;;;;13.10;79.90;100932.31;4995762;28;45520;-81
2023/12/25 10:58:49;;;;;;;;;2.00;0.67;;;;;13.08;80.83;100923.53;4995762;28;45384;-87
2023/12/25 11:01:21;;;;;;;;;2.00;1.00;;;;;12.93;80.51;100910.16;4995399;27;45480;-83
2023/12/25 11:03:47;;;;;;;;;1.00;1.00;;;;;13.04;80.46;100917.53;4995615;28;45536;-82
2023/12/25 11:06:13;;;;;;;;;1.00;1.00;;;;;13.00;79.81;100922.16;4997450;28;45587;-81
2023/12/25 11:08:40;;;;;;;;;0.00;0.00;;;;;12.94;80.88;100911.88;4996840;28;46535;-85
2023/12/25 11:11:05;;;;;;;;;1.00;1.00;;;;;12.93;80.02;100915.50;4996009;27;45363;-84
2023/12/25 11:13:31;;;;;;;;;1.00;1.00;;;;;12.95;81.00;100913.59;4996138;27;45506;-83
2023/12/25 11:15:56;;;;;;;;;0.00;0.00;;;;;12.91;80.62;100903.22;4997394;27;45528;-85